Time;durP1;ratioP1;P1;durP2;ratioP2;P2;SDS_P1;SDS_P2;PMS_P1;PMS_P2;Temp;Humidity;BMP_temperature;BMP_pressure;BME280_temperature;BME280_humidity;BME280_pressure;Samples;Min_cycle;Max_cycle;Signal;HPM_P1;HPM_P2
2024/02/08 00:00:12;;;;;;;19.17;6.93;;;13.50;58.60;;;;;;6282836;28;20020;-73
2024/02/08 00:07:36;;;;;;;19.48;6.22;;;13.40;59.00;;;;;;6268503;28;20036;-73
2024/02/08 00:10:37;;;;;;;15.32;6.57;;;13.30;59.20;;;;;;6280569;28;20546;-72
2024/02/08 00:13:38;;;;;;;12.85;6.30;;;13.30;59.50;;;;;;6286820;28;20478;-72
2024/02/08 00:16:39;;;;;;;11.45;5.65;;;13.30;59.60;;;;;;6280367;28;20020;-73
2024/02/08 00:19:40;;;;;;;16.45;6.75;;;13.30;59.70;;;;;;6285531;28;20521;-72
2024/02/08 00:22:44;;;;;;;16.75;7.05;;;13.30;59.90;;;;;;6297385;28;20030;-74
2024/02/08 00:25:50;;;;;;;13.50;6.95;;;13.30;59.90;;;;;;6282791;28;20035;-72
2024/02/08 00:28:50;;;;;;;22.27;6.75;;;13.30;60.00;;;;;;6280988;28;20100;-74
2024/02/08 00:31:51;;;;;;;14.77;6.70;;;13.30;60.10;;;;;;6295335;28;20024;-73
2024/02/08 00:34:52;;;;;;;12.90;6.13;;;13.20;60.30;;;;;;6295053;28;20695;-73
2024/02/08 00:37:53;;;;;;;20.10;7.13;;;13.20;60.50;;;;;;6304142;28;20139;-72
2024/02/08 00:40:55;;;;;;;12.93;5.78;;;13.20;60.80;;;;;;6288459;28;20311;-72
2024/02/08 00:43:55;;;;;;;18.92;5.72;;;13.20;61.00;;;;;;6291700;28;20360;-74
2024/02/08 00:46:56;;;;;;;16.00;6.10;;;13.10;61.10;;;;;;6305696;28;20024;-73
2024/02/08 00:49:59;;;;;;;17.52;6.45;;;13.10;61.40;;;;;;6285449;28;20460;-73
2024/02/08 00:53:03;;;;;;;15.90;5.68;;;13.10;61.60;;;;;;6291280;28;20032;-73
2024/02/08 00:56:04;;;;;;;15.00;6.47;;;13.10;61.80;;;;;;6283392;28;20546;-72
2024/02/08 00:59:05;;;;;;;16.83;5.75;;;13.10;61.90;;;;;;6282875;28;20024;-72
2024/02/08 01:02:07;;;;;;;16.30;4.93;;;13.00;61.90;;;;;;6282667;28;20061;-74
2024/02/08 01:05:08;;;;;;;18.40;6.35;;;13.10;62.10;;;;;;6277062;28;20122;-72
2024/02/08 01:08:08;;;;;;;16.77;6.30;;;13.00;62.10;;;;;;6280848;28;20069;-73
2024/02/08 01:11:09;;;;;;;15.32;6.38;;;13.00;62.20;;;;;;6300635;28;20393;-73
2024/02/08 01:14:10;;;;;;;15.30;5.55;;;13.00;62.30;;;;;;6298995;28;20016;-72
2024/02/08 01:17:11;;;;;;;14.50;6.32;;;13.00;62.30;;;;;;6306237;28;20100;-74
2024/02/08 01:20:21;;;;;;;15.35;6.13;;;13.00;62.20;;;;;;6282682;28;20107;-73
2024/02/08 01:23:22;;;;;;;10.02;5.80;;;13.00;62.10;;;;;;6298893;28;20089;-73
2024/02/08 01:26:24;;;;;;;13.32;5.80;;;13.10;62.00;;;;;;6307540;28;20038;-77
2024/02/08 01:29:26;;;;;;;17.52;5.45;;;13.10;61.90;;;;;;6288897;28;20036;-77
2024/02/08 01:32:28;;;;;;;15.57;5.90;;;13.20;61.90;;;;;;6296565;28;20095;-76
2024/02/08 01:35:28;;;;;;;14.75;6.43;;;13.20;61.90;;;;;;6306118;28;20016;-76
2024/02/08 01:38:29;;;;;;;13.57;6.57;;;13.10;61.80;;;;;;6308538;28;20044;-77
2024/02/08 01:41:34;;;;;;;12.38;5.70;;;13.20;61.80;;;;;;6309764;28;20121;-76
2024/02/08 01:44:35;;;;;;;10.32;5.55;;;13.20;61.80;;;;;;6295097;28;20034;-75
2024/02/08 01:47:35;;;;;;;13.07;5.55;;;13.20;61.80;;;;;;6283360;28;20032;-76
2024/02/08 01:50:49;;;;;;;14.85;5.97;;;13.20;61.90;;;;;;6288492;28;20042;-74
2024/02/08 01:53:51;;;;;;;14.93;6.10;;;13.10;62.10;;;;;;6285320;28;20172;-77
2024/02/08 01:56:53;;;;;;;14.32;6.50;;;13.10;62.20;;;;;;6304209;28;20100;-76
2024/02/08 01:59:54;;;;;;;12.13;5.88;;;13.10;62.20;;;;;;6300711;28;20071;-75
2024/02/08 02:03:01;;;;;;;16.05;6.22;;;13.10;62.00;;;;;;6302247;28;20154;-77
2024/02/08 02:06:07;;;;;;;14.13;7.05;;;13.20;62.00;;;;;;6294738;28;20448;-76
2024/02/08 02:09:10;;;;;;;15.98;6.53;;;13.20;62.10;;;;;;6284913;28;20026;-76
2024/02/08 02:12:22;;;;;;;20.85;6.13;;;13.20;62.10;;;;;;6287000;28;20024;-77
2024/02/08 02:15:23;;;;;;;13.55;6.25;;;13.20;62.10;;;;;;6303288;28;20079;-76
2024/02/08 02:18:24;;;;;;;11.52;6.00;;;13.20;62.10;;;;;;6290046;28;20405;-76
2024/02/08 02:21:27;;;;;;;15.75;6.88;;;13.20;62.10;;;;;;6283336;28;20038;-78
2024/02/08 02:24:29;;;;;;;18.23;7.07;;;13.20;62.30;;;;;;6298886;28;20024;-77
2024/02/08 02:27:30;;;;;;;15.10;6.80;;;13.20;62.40;;;;;;6291714;28;20032;-77
2024/02/08 02:30:35;;;;;;;16.42;7.28;;;13.20;62.40;;;;;;6300884;28;20115;-76
2024/02/08 02:33:36;;;;;;;13.95;7.53;;;13.20;62.20;;;;;;6283254;28;20044;-75
2024/02/08 02:36:38;;;;;;;14.88;6.93;;;13.30;62.20;;;;;;6280399;28;20013;-77
2024/02/08 02:39:39;;;;;;;12.98;6.72;;;13.30;62.10;;;;;;6283431;28;20747;-76
2024/02/08 02:42:40;;;;;;;17.42;7.03;;;13.30;61.90;;;;;;6297281;28;20066;-75
2024/02/08 02:45:41;;;;;;;19.55;7.10;;;13.40;61.80;;;;;;6300424;28;20026;-76
2024/02/08 02:48:42;;;;;;;17.55;6.10;;;13.40;61.70;;;;;;6283004;28;20028;-75
2024/02/08 02:51:48;;;;;;;14.57;7.25;;;13.30;61.50;;;;;;6301960;28;20050;-77
2024/02/08 02:54:49;;;;;;;16.95;7.93;;;13.40;61.40;;;;;;6294346;28;20069;-77
2024/02/08 02:57:50;;;;;;;19.90;8.40;;;13.40;61.40;;;;;;6291243;28;20043;-77
2024/02/08 03:01:07;;;;;;;16.83;6.43;;;13.40;61.50;;;;;;6280502;28;20369;-77
2024/02/08 03:04:08;;;;;;;14.95;6.78;;;13.30;61.40;;;;;;6285923;28;20027;-76
2024/02/08 03:07:18;;;;;;;18.33;6.88;;;13.40;61.50;;;;;;6292639;28;20025;-76
2024/02/08 03:10:21;;;;;;;13.75;5.47;;;13.30;61.50;;;;;;6279360;28;20081;-76
2024/02/08 03:13:23;;;;;;;17.98;6.63;;;13.30;61.60;;;;;;6295987;28;20459;-77
2024/02/08 03:16:28;;;;;;;15.10;6.53;;;13.30;61.70;;;;;;6289960;28;20050;-75
2024/02/08 03:19:34;;;;;;;17.38;6.68;;;13.30;62.10;;;;;;6286172;28;20073;-77
2024/02/08 03:22:44;;;;;;;17.02;6.82;;;13.20;62.20;;;;;;6288468;28;20053;-76
2024/02/08 03:26:11;;;;;;;17.65;6.10;;;13.20;62.40;;;;;;6289172;28;20032;-76
2024/02/08 03:29:15;;;;;;;18.08;6.85;;;13.20;62.60;;;;;;6281702;28;20127;-77
2024/02/08 03:32:21;;;;;;;16.33;7.15;;;13.10;62.70;;;;;;6290088;28;20034;-76
2024/02/08 03:35:32;;;;;;;21.75;5.80;;;13.20;62.90;;;;;;6306636;28;20505;-76
2024/02/08 03:38:33;;;;;;;17.15;7.32;;;13.10;63.10;;;;;;6281629;28;20052;-77
2024/02/08 03:41:34;;;;;;;10.93;6.00;;;13.00;63.20;;;;;;6288617;28;20028;-76
2024/02/08 03:44:35;;;;;;;17.65;6.32;;;13.00;63.50;;;;;;6286739;28;20391;-75
2024/02/08 03:47:39;;;;;;;16.90;5.88;;;13.00;63.70;;;;;;6300306;28;20461;-76
2024/02/08 03:50:40;;;;;;;15.75;7.28;;;13.00;63.70;;;;;;6280601;28;20130;-76
2024/02/08 03:53:43;;;;;;;11.07;5.65;;;13.00;63.60;;;;;;6295214;28;20024;-77
2024/02/08 03:56:47;;;;;;;17.95;5.88;;;13.00;63.60;;;;;;6305410;28;20020;-77
2024/02/08 03:59:48;;;;;;;16.42;6.45;;;13.00;63.60;;;;;;6305666;28;20457;-77
2024/02/08 04:02:49;;;;;;;13.43;6.30;;;13.00;63.60;;;;;;6289831;28;20170;-76
2024/02/08 04:09:08;;;;;;;11.25;5.95;;;13.00;63.60;;;;;;6284581;28;20028;-76
2024/02/08 04:55:23;;;;;;;12.52;5.40;;;12.60;65.40;;;;;;6295136;28;20020;-76
2024/02/08 04:58:26;;;;;;;12.60;5.40;;;12.60;65.50;;;;;;6314965;28;20024;-77
2024/02/08 05:01:27;;;;;;;13.38;6.18;;;12.50;65.60;;;;;;6291504;28;20222;-77
2024/02/08 05:04:29;;;;;;;18.38;5.55;;;12.60;65.70;;;;;;6289301;28;20041;-75
2024/02/08 05:07:29;;;;;;;15.20;5.13;;;12.60;65.70;;;;;;6289539;28;20535;-77
2024/02/08 05:10:30;;;;;;;11.27;4.97;;;12.60;65.60;;;;;;6289579;28;20048;-74
2024/02/08 05:13:31;;;;;;;17.92;5.88;;;12.70;65.70;;;;;;6312605;28;20016;-77
2024/02/08 05:16:36;;;;;;;20.10;5.95;;;12.60;65.70;;;;;;6299033;28;20108;-76
2024/02/08 05:19:43;;;;;;;17.33;5.97;;;12.60;65.90;;;;;;6304007;28;20111;-77
2024/02/08 05:22:45;;;;;;;23.25;7.93;;;12.60;65.90;;;;;;6293432;28;20104;-77
2024/02/08 05:25:45;;;;;;;14.55;6.43;;;12.50;66.00;;;;;;6289525;28;20225;-77
2024/02/08 05:28:47;;;;;;;15.32;6.35;;;12.60;66.00;;;;;;6306364;28;20028;-76
2024/02/08 05:31:49;;;;;;;18.45;7.18;;;12.60;66.00;;;;;;6312141;28;20059;-77
2024/02/08 05:34:50;;;;;;;20.63;6.60;;;12.60;65.90;;;;;;6287015;28;20112;-77
2024/02/08 05:37:53;;;;;;;14.48;6.18;;;12.60;65.90;;;;;;6296801;28;20073;-77
2024/02/08 05:40:56;;;;;;;14.52;6.22;;;12.60;65.90;;;;;;6291884;28;20081;-77
2024/02/08 05:43:57;;;;;;;15.32;6.35;;;12.60;65.90;;;;;;6306679;28;20127;-75
2024/02/08 05:47:07;;;;;;;15.05;6.80;;;12.60;65.90;;;;;;6311224;28;20019;-77
2024/02/08 05:50:08;;;;;;;11.27;6.20;;;12.50;66.00;;;;;;6307336;28;20032;-76
2024/02/08 05:53:09;;;;;;;13.77;5.97;;;12.50;66.20;;;;;;6298847;28;20069;-76
2024/02/08 05:56:10;;;;;;;12.90;6.78;;;12.50;66.20;;;;;;6306751;28;20024;-77
2024/02/08 05:59:15;;;;;;;20.88;5.70;;;12.50;66.30;;;;;;6293173;28;20092;-76
2024/02/08 06:02:22;;;;;;;16.05;5.75;;;12.60;66.20;;;;;;6289483;28;20834;-76
2024/02/08 06:05:26;;;;;;;11.65;6.00;;;12.50;66.10;;;;;;6309208;28;20149;-77
2024/02/08 06:08:27;;;;;;;14.25;6.05;;;12.50;66.00;;;;;;6288808;28;20692;-77
2024/02/08 06:11:28;;;;;;;12.23;5.75;;;12.50;66.00;;;;;;6309829;28;20107;-76
2024/02/08 06:14:29;;;;;;;10.50;5.47;;;12.60;66.20;;;;;;6289319;28;20108;-77
2024/02/08 06:17:37;;;;;;;15.07;5.88;;;12.50;66.20;;;;;;6300523;28;20020;-76
2024/02/08 06:20:43;;;;;;;13.65;6.65;;;12.50;66.40;;;;;;6309635;28;20047;-77
2024/02/08 06:23:45;;;;;;;9.65;5.65;;;12.50;66.50;;;;;;6303740;28;20053;-77
2024/02/08 06:26:55;;;;;;;12.75;5.53;;;12.50;66.50;;;;;;6299008;28;20098;-76
2024/02/08 06:29:56;;;;;;;11.32;5.97;;;12.40;66.70;;;;;;6305393;28;20071;-77
2024/02/08 06:33:07;;;;;;;13.32;5.20;;;12.40;66.80;;;;;;6300166;28;20024;-79
2024/02/08 06:36:09;;;;;;;11.75;5.70;;;12.40;66.90;;;;;;6286987;28;20127;-77
2024/02/08 06:39:27;;;;;;;11.63;6.05;;;12.40;66.90;;;;;;6299099;28;20588;-76
2024/02/08 06:48:48;;;;;;;22.90;5.50;;;12.40;67.10;;;;;;6291235;28;20040;-78
2024/02/08 07:40:01;;;;;;;34.38;7.50;;;12.70;66.70;;;;;;6278603;28;20024;-79
2024/02/08 07:46:18;;;;;;;13.82;5.20;;;12.70;66.90;;;;;;6286781;28;20091;-77
2024/02/08 07:49:19;;;;;;;16.42;5.70;;;12.60;66.70;;;;;;6303687;28;20085;-77
2024/02/08 07:52:20;;;;;;;14.57;5.90;;;12.70;66.70;;;;;;6281825;28;20040;-78
2024/02/08 07:55:37;;;;;;;22.13;5.60;;;12.80;66.80;;;;;;6281265;28;20021;-77
2024/02/08 07:58:42;;;;;;;10.43;5.28;;;12.90;66.80;;;;;;6292892;28;20071;-76
2024/02/08 08:01:49;;;;;;;11.70;5.22;;;12.90;66.60;;;;;;6304213;28;20077;-77
2024/02/08 08:04:52;;;;;;;13.63;5.85;;;13.00;66.30;;;;;;6289745;28;20025;-77
2024/02/08 08:07:59;;;;;;;14.43;5.65;;;13.10;66.00;;;;;;6290016;28;20089;-78
2024/02/08 08:11:04;;;;;;;15.48;5.05;;;13.10;65.70;;;;;;6305613;28;20025;-78
2024/02/08 08:20:46;;;;;;;20.40;6.60;;;13.30;64.80;;;;;;6293043;28;20134;-78
2024/02/08 08:23:59;;;;;;;15.02;6.22;;;13.40;64.50;;;;;;6283632;28;20036;-77
2024/02/08 08:27:26;;;;;;;10.82;5.20;;;13.50;64.20;;;;;;6285248;28;20032;-78
2024/02/08 08:30:29;;;;;;;18.15;7.05;;;13.60;63.90;;;;;;6283830;28;20081;-77
2024/02/08 08:37:02;;;;;;;14.48;6.75;;;13.80;63.30;;;;;;6282397;28;20020;-77
2024/02/08 08:40:23;;;;;;;14.25;5.25;;;13.80;63.20;;;;;;6291750;28;20052;-77
2024/02/08 08:43:24;;;;;;;14.45;6.00;;;13.80;63.20;;;;;;6256232;28;20033;-78
2024/02/08 08:46:25;;;;;;;14.38;5.10;;;13.70;63.20;;;;;;6279611;28;20039;-77
2024/02/08 08:49:29;;;;;;;15.38;6.00;;;13.70;63.20;;;;;;6297355;28;20016;-79
2024/02/08 08:52:46;;;;;;;10.25;4.85;;;13.70;63.20;;;;;;6278724;28;20051;-78
2024/02/08 08:55:50;;;;;;;20.42;5.68;;;13.70;63.30;;;;;;6283503;28;20017;-78
2024/02/08 08:58:52;;;;;;;13.27;5.70;;;13.70;63.40;;;;;;6286350;28;20100;-77
2024/02/08 09:01:53;;;;;;;10.27;5.10;;;13.80;63.60;;;;;;6305238;28;20023;-78
2024/02/08 09:04:54;;;;;;;10.75;4.93;;;13.80;63.50;;;;;;6292443;28;20078;-77
2024/02/08 09:07:55;;;;;;;14.82;4.88;;;13.90;63.50;;;;;;6305367;28;20452;-77
2024/02/08 09:10:56;;;;;;;14.00;5.68;;;13.90;63.50;;;;;;6288698;28;20047;-77
2024/02/08 09:14:09;;;;;;;13.95;6.88;;;14.00;63.50;;;;;;6303190;28;20101;-77
2024/02/08 09:17:13;;;;;;;17.17;5.93;;;14.00;63.60;;;;;;6282193;28;20032;-77
2024/02/08 09:20:19;;;;;;;22.42;6.97;;;14.00;63.70;;;;;;6289671;28;20032;-77
2024/02/08 09:23:25;;;;;;;14.65;5.35;;;14.20;63.90;;;;;;6304363;28;20573;-78
2024/02/08 09:26:33;;;;;;;21.45;5.32;;;14.30;63.60;;;;;;6290768;28;20104;-78
2024/02/08 09:29:38;;;;;;;9.57;4.70;;;14.40;63.20;;;;;;6292441;28;20153;-76
2024/02/08 09:32:45;;;;;;;9.95;4.25;;;14.60;62.90;;;;;;6302762;28;20028;-77
2024/02/08 09:35:47;;;;;;;13.27;4.72;;;14.50;62.40;;;;;;6301257;28;20459;-78
2024/02/08 09:38:50;;;;;;;10.43;4.88;;;14.60;62.40;;;;;;6282464;28;20111;-78
2024/02/08 09:41:51;;;;;;;10.15;3.75;;;14.70;62.10;;;;;;6286690;28;20039;-77
2024/02/08 09:45:42;;;;;;;11.20;4.50;;;14.80;62.30;;;;;;6284201;28;20024;-77
2024/02/08 09:48:25;;;;;;;13.18;5.30;;;14.90;61.50;;;;;;6306803;28;20044;-78
2024/02/08 09:51:35;;;;;;;11.52;4.03;;;15.00;61.20;;;;;;6295296;28;20028;-78
2024/02/08 09:54:37;;;;;;;14.35;4.65;;;15.10;60.70;;;;;;6304342;28;20073;-77
2024/02/08 09:57:46;;;;;;;8.20;4.60;;;15.20;59.80;;;;;;6286318;28;20026;-78
2024/02/08 10:00:57;;;;;;;13.07;4.35;;;15.20;59.90;;;;;;6306230;28;20045;-79
2024/02/08 10:04:05;;;;;;;16.48;5.28;;;15.30;59.90;;;;;;6307689;28;20100;-78
2024/02/08 10:07:15;;;;;;;7.97;3.25;;;15.40;59.50;;;;;;6296372;28;20031;-78
2024/02/08 10:10:17;;;;;;;11.25;3.70;;;15.40;59.20;;;;;;6306038;28;20028;-77
2024/02/08 10:13:40;;;;;;;10.55;4.60;;;15.40;58.60;;;;;;6282011;28;20040;-78
2024/02/08 10:16:47;;;;;;;13.85;3.97;;;15.40;59.20;;;;;;6282454;28;20020;-78
2024/02/08 10:23:35;;;;;;;6.07;3.85;;;15.60;58.20;;;;;;6302353;28;20448;-77
2024/02/08 10:26:39;;;;;;;13.15;4.57;;;15.80;58.00;;;;;;6297184;28;20032;-77
2024/02/08 10:29:43;;;;;;;7.45;3.72;;;15.90;57.60;;;;;;6283273;28;20110;-78
2024/02/08 10:32:45;;;;;;;10.52;4.55;;;16.10;57.50;;;;;;6299972;28;20017;-77
2024/02/08 10:35:47;;;;;;;22.20;4.80;;;16.30;57.20;;;;;;6286665;28;20016;-77
2024/02/08 10:38:59;;;;;;;17.73;5.57;;;16.50;56.90;;;;;;6305074;28;20021;-77
2024/02/08 10:42:01;;;;;;;15.02;4.68;;;16.70;56.70;;;;;;6305124;28;20023;-79
2024/02/08 10:45:05;;;;;;;11.52;3.65;;;16.80;56.30;;;;;;6308376;28;20016;-78
2024/02/08 10:48:09;;;;;;;13.55;3.75;;;17.00;56.00;;;;;;6298332;28;20038;-78
2024/02/08 10:51:12;;;;;;;18.33;3.47;;;17.10;55.70;;;;;;6289816;28;20032;-78
2024/02/08 10:54:15;;;;;;;12.27;3.33;;;17.10;55.00;;;;;;6308751;28;20080;-78
2024/02/08 11:03:52;;;;;;;11.27;2.92;;;17.00;53.90;;;;;;6285184;28;20025;-76
2024/02/08 11:10:32;;;;;;;8.02;2.65;;;16.90;53.90;;;;;;6227766;28;20037;-78
2024/02/08 11:13:37;;;;;;;5.35;2.88;;;16.90;53.50;;;;;;6215525;28;20033;-77
2024/02/08 11:17:22;;;;;;;13.02;4.25;;;16.90;53.20;;;;;;6216361;28;20029;-78
2024/02/08 11:20:52;;;;;;;11.25;4.72;;;16.90;53.30;;;;;;6221066;28;20045;-78
2024/02/08 11:23:57;;;;;;;8.93;4.45;;;17.00;53.40;;;;;;6242592;28;20156;-77
2024/02/08 11:27:01;;;;;;;9.20;4.30;;;17.30;53.10;;;;;;6242340;28;20078;-77
2024/02/08 11:30:10;;;;;;;6.10;3.33;;;17.70;52.50;;;;;;6216461;28;20037;-78
2024/02/08 11:33:20;;;;;;;12.30;5.43;;;18.10;51.50;;;;;;6221268;28;20233;-78
2024/02/08 11:36:34;;;;;;;9.30;4.95;;;18.70;50.70;;;;;;6215430;28;20025;-78
2024/02/08 11:39:39;;;;;;;9.63;4.10;;;19.50;48.80;;;;;;6251807;28;20135;-77
2024/02/08 11:42:42;;;;;;;12.63;5.32;;;20.10;47.40;;;;;;6223240;28;20122;-79
2024/02/08 11:45:52;;;;;;;16.88;4.63;;;20.70;46.50;;;;;;6222446;28;20069;-77
2024/02/08 11:49:09;;;;;;;12.55;4.13;;;21.40;45.20;;;;;;6304834;28;20031;-78
2024/02/08 11:52:19;;;;;;;4.78;2.83;;;22.00;44.10;;;;;;6296227;28;20032;-79
2024/02/08 11:55:23;;;;;;;17.25;5.95;;;22.60;42.60;;;;;;6282111;28;20017;-77
2024/02/08 11:58:29;;;;;;;9.52;4.88;;;23.10;41.70;;;;;;6287503;28;20020;-78
2024/02/08 12:01:32;;;;;;;9.48;3.08;;;23.30;40.40;;;;;;6304860;28;20039;-79
2024/02/08 12:04:37;;;;;;;7.25;3.78;;;23.70;39.70;;;;;;6282230;28;20051;-78
2024/02/08 12:07:45;;;;;;;10.32;3.13;;;23.90;39.00;;;;;;6282260;28;20021;-78
2024/02/08 12:10:49;;;;;;;8.50;3.70;;;24.10;38.80;;;;;;6282896;28;20044;-79
2024/02/08 12:13:56;;;;;;;7.25;2.97;;;24.30;38.10;;;;;;6303092;28;20032;-77
2024/02/08 12:16:57;;;;;;;6.68;3.28;;;24.40;38.00;;;;;;6303023;28;20016;-78
2024/02/08 12:20:01;;;;;;;12.50;3.30;;;24.50;37.50;;;;;;6288266;28;20108;-78
2024/02/08 12:23:02;;;;;;;8.80;3.67;;;24.00;38.00;;;;;;6305961;28;20016;-78
2024/02/08 12:26:06;;;;;;;5.78;2.20;;;23.40;39.40;;;;;;6293938;28;20063;-79
2024/02/08 12:29:16;;;;;;;10.77;3.35;;;22.70;40.40;;;;;;6292534;28;20020;-79
2024/02/08 12:32:17;;;;;;;8.13;3.28;;;22.20;41.70;;;;;;6299631;28;20136;-78
2024/02/08 12:35:20;;;;;;;10.38;3.13;;;21.70;41.90;;;;;;6282337;28;20016;-79
2024/02/08 12:38:21;;;;;;;9.75;2.85;;;21.20;42.60;;;;;;6294011;28;20115;-78
2024/02/08 12:41:23;;;;;;;10.55;2.72;;;20.90;43.20;;;;;;6294219;28;20660;-78
2024/02/08 12:44:24;;;;;;;4.88;2.83;;;20.60;43.90;;;;;;6280735;28;20120;-78
2024/02/08 12:47:26;;;;;;;17.92;5.57;;;20.30;44.30;;;;;;6285185;28;20032;-78
2024/02/08 12:50:31;;;;;;;7.72;3.40;;;20.10;44.70;;;;;;6287773;28;20105;-78
2024/02/08 12:53:32;;;;;;;17.45;3.92;;;20.00;45.00;;;;;;6278611;28;20170;-78
2024/02/08 12:56:36;;;;;;;6.70;3.00;;;19.70;45.50;;;;;;6268913;28;20565;-77
2024/02/08 12:59:38;;;;;;;6.75;2.97;;;19.60;45.90;;;;;;6285353;28;20063;-78
2024/02/08 13:02:40;;;;;;;11.73;2.97;;;19.50;46.20;;;;;;6292050;28;20321;-79
2024/02/08 13:05:43;;;;;;;11.48;3.75;;;19.40;46.30;;;;;;6303596;28;20452;-79
2024/02/08 13:08:45;;;;;;;12.35;3.45;;;19.40;46.50;;;;;;6296097;28;20035;-77
2024/02/08 13:11:46;;;;;;;7.13;2.50;;;19.30;46.80;;;;;;6268702;28;20180;-78
2024/02/08 13:14:50;;;;;;;19.15;3.40;;;19.20;46.80;;;;;;6298285;28;20036;-79
2024/02/08 13:17:51;;;;;;;8.52;2.72;;;19.10;46.90;;;;;;6299060;28;22082;-77
2024/02/08 13:20:51;;;;;;;8.80;2.72;;;19.10;47.00;;;;;;6296624;28;20051;-78
2024/02/08 13:23:55;;;;;;;5.60;2.72;;;19.20;47.00;;;;;;6301007;28;20349;-77
2024/02/08 13:26:56;;;;;;;9.63;2.00;;;19.20;47.10;;;;;;6284189;28;20364;-78
2024/02/08 13:29:59;;;;;;;7.88;3.28;;;19.30;46.90;;;;;;6288137;28;20044;-79
2024/02/08 13:33:05;;;;;;;13.68;4.63;;;19.30;47.50;;;;;;6300880;28;20016;-78
2024/02/08 13:36:08;;;;;;;7.25;3.25;;;19.30;46.80;;;;;;6310503;28;20035;-78
2024/02/08 13:39:11;;;;;;;10.13;3.55;;;19.30;46.80;;;;;;6293367;28;20086;-78
2024/02/08 13:42:12;;;;;;;5.85;3.25;;;19.30;47.10;;;;;;6296960;28;20050;-78
2024/02/08 13:45:14;;;;;;;5.35;2.60;;;19.40;46.90;;;;;;6289888;28;20036;-77
2024/02/08 13:48:15;;;;;;;6.80;2.95;;;19.40;46.90;;;;;;6283684;28;20048;-79
2024/02/08 13:51:16;;;;;;;6.18;2.65;;;19.40;46.90;;;;;;6284367;28;20024;-78
2024/02/08 13:54:18;;;;;;;4.78;2.42;;;19.40;46.80;;;;;;6284277;28;20093;-77
2024/02/08 13:57:19;;;;;;;6.55;2.45;;;19.50;46.80;;;;;;6282897;28;20020;-78
2024/02/08 14:00:22;;;;;;;5.50;2.50;;;19.50;46.60;;;;;;6284427;28;20192;-78
2024/02/08 14:03:23;;;;;;;5.90;2.55;;;19.40;46.60;;;;;;6291395;28;20012;-78
2024/02/08 14:06:25;;;;;;;7.60;2.58;;;19.30;46.80;;;;;;6310247;28;20522;-79
2024/02/08 14:09:29;;;;;;;10.75;3.28;;;19.30;46.90;;;;;;6297082;28;20028;-78
2024/02/08 14:12:33;;;;;;;9.85;2.92;;;19.30;47.00;;;;;;6288857;28;20082;-79
2024/02/08 14:15:38;;;;;;;15.48;2.78;;;19.20;47.00;;;;;;6284939;28;20433;-76
2024/02/08 14:18:39;;;;;;;7.55;2.53;;;19.20;47.00;;;;;;6290186;28;20016;-78
2024/02/08 14:21:40;;;;;;;8.48;2.45;;;19.20;47.20;;;;;;6284191;28;20012;-78
2024/02/08 14:24:50;;;;;;;5.03;2.33;;;19.20;47.30;;;;;;6287836;28;20027;-79
2024/02/08 14:27:54;;;;;;;8.38;2.05;;;19.30;47.40;;;;;;6292261;28;20031;-77
2024/02/08 14:30:55;;;;;;;7.38;2.83;;;19.40;47.30;;;;;;6307309;28;20107;-78
2024/02/08 14:33:56;;;;;;;4.60;2.22;;;19.50;46.90;;;;;;6291844;28;20059;-79
2024/02/08 14:36:57;;;;;;;5.07;2.47;;;19.50;46.60;;;;;;6282504;28;20082;-78
2024/02/08 14:39:58;;;;;;;11.38;2.30;;;19.60;46.50;;;;;;6284538;28;20503;-78
2024/02/08 14:42:59;;;;;;;7.03;3.20;;;19.60;46.50;;;;;;6295902;28;20023;-78
2024/02/08 14:46:01;;;;;;;10.85;2.60;;;19.60;46.50;;;;;;6284480;28;20461;-77
2024/02/08 14:49:16;;;;;;;5.03;1.70;;;19.70;46.70;;;;;;6289609;28;20583;-77
2024/02/08 14:52:24;;;;;;;5.78;1.95;;;19.80;46.70;;;;;;6290245;28;20028;-78
2024/02/08 14:55:26;;;;;;;3.67;1.75;;;19.90;46.40;;;;;;6287214;28;20462;-79
2024/02/08 14:58:33;;;;;;;6.95;2.47;;;19.90;46.10;;;;;;6283152;28;20084;-78
2024/02/08 15:01:42;;;;;;;12.90;2.40;;;20.10;46.00;;;;;;6280334;28;20537;-76
2024/02/08 15:04:45;;;;;;;11.40;2.40;;;20.00;45.80;;;;;;6285405;28;20036;-77
2024/02/08 15:07:51;;;;;;;13.50;2.30;;;19.90;45.80;;;;;;6282880;28;20035;-77
2024/02/08 15:14:18;;;;;;;6.57;2.20;;;19.80;45.90;;;;;;6297412;28;20030;-77
2024/02/08 15:17:19;;;;;;;8.93;2.40;;;19.70;45.90;;;;;;6311328;28;20028;-78
2024/02/08 15:20:43;;;;;;;8.98;2.35;;;19.60;45.90;;;;;;6308959;28;20534;-78
2024/02/08 15:24:18;;;;;;;18.90;2.55;;;19.50;45.90;;;;;;6294194;28;20025;-77
2024/02/08 15:27:18;;;;;;;5.50;2.15;;;19.30;46.20;;;;;;6297283;28;20020;-78
2024/02/08 15:30:36;;;;;;;9.40;2.15;;;19.20;46.40;;;;;;6306416;28;20032;-77
2024/02/08 15:33:57;;;;;;;8.52;2.20;;;19.10;46.80;;;;;;6277775;28;20016;-78
2024/02/08 15:37:13;;;;;;;2.95;1.30;;;19.00;47.20;;;;;;6282993;28;20042;-77
2024/02/08 15:40:16;;;;;;;4.55;1.70;;;18.90;47.60;;;;;;6297074;28;20104;-78
2024/02/08 15:43:17;;;;;;;7.07;1.35;;;18.80;48.20;;;;;;6301220;28;20017;-79
2024/02/08 15:46:20;;;;;;;3.38;1.60;;;18.70;48.50;;;;;;6296664;28;20104;-77
2024/02/08 15:49:28;;;;;;;6.32;2.05;;;18.60;48.70;;;;;;6284836;28;20024;-77
2024/02/08 15:52:33;;;;;;;;;;;18.60;49.10;;;;;;6275820;28;20448;-79
2024/02/08 15:55:39;;;;;;;5.45;1.60;;;18.50;49.50;;;;;;6287305;28;19908;-77
2024/02/08 15:58:44;;;;;;;2.67;1.15;;;18.40;49.70;;;;;;6284581;28;20023;-78
2024/02/08 16:01:49;;;;;;;7.70;1.60;;;18.30;50.10;;;;;;6305180;28;20376;-78
2024/02/08 16:04:51;;;;;;;3.50;1.77;;;18.30;50.30;;;;;;6287233;28;20039;-78
2024/02/08 16:07:57;;;;;;;3.13;1.40;;;18.30;50.40;;;;;;6310183;28;20026;-78
2024/02/08 16:11:18;;;;;;;4.43;1.52;;;18.30;50.60;;;;;;6287695;28;20058;-78
2024/02/08 16:14:25;;;;;;;8.20;1.95;;;18.30;51.30;;;;;;6293146;28;20058;-79
2024/02/08 16:17:36;;;;;;;10.65;2.03;;;18.20;51.00;;;;;;6309812;28;20055;-78
2024/02/08 16:20:37;;;;;;;3.17;1.77;;;18.20;51.00;;;;;;6298782;28;20021;-79
2024/02/08 16:23:46;;;;;;;3.65;1.70;;;18.30;51.00;;;;;;6292434;28;20039;-78
2024/02/08 16:26:56;;;;;;;10.02;2.03;;;18.20;51.00;;;;;;6288559;28;20107;-80
2024/02/08 16:30:07;;;;;;;3.63;1.35;;;18.20;51.20;;;;;;6300295;28;20051;-76
2024/02/08 16:33:08;;;;;;;4.68;1.90;;;18.20;51.30;;;;;;6284689;28;20025;-78
2024/02/08 16:39:42;;;;;;;8.43;2.55;;;18.20;51.50;;;;;;6284828;28;20025;-80
2024/02/08 16:42:56;;;;;;;7.80;2.72;;;18.10;51.80;;;;;;6273121;28;20499;-78
2024/02/08 16:46:05;;;;;;;8.27;3.08;;;18.10;51.90;;;;;;6283646;28;20031;-77
2024/02/08 16:49:06;;;;;;;7.68;2.55;;;18.10;51.80;;;;;;6310042;28;20024;-78
2024/02/08 16:52:21;;;;;;;5.20;2.05;;;18.10;51.80;;;;;;6305485;28;20075;-78
2024/02/08 16:55:33;;;;;;;2.90;1.77;;;18.00;51.80;;;;;;6288220;28;20457;-78
2024/02/08 16:58:50;;;;;;;9.23;2.47;;;18.00;51.80;;;;;;6307834;28;20722;-78
2024/02/08 17:05:20;;;;;;;5.25;2.65;;;17.90;51.80;;;;;;6230212;28;20545;-77
2024/02/08 17:08:21;;;;;;;2.97;1.88;;;17.90;52.00;;;;;;6230355;28;20022;-79
2024/02/08 17:11:24;;;;;;;7.93;2.15;;;17.80;52.30;;;;;;6228615;28;20068;-78
2024/02/08 17:14:46;;;;;;;5.82;2.08;;;17.80;52.50;;;;;;6230158;28;20044;-78
2024/02/08 17:17:50;;;;;;;6.05;2.28;;;17.70;52.70;;;;;;6222987;28;20148;-78
2024/02/08 17:24:29;;;;;;;6.10;2.95;;;17.60;53.00;;;;;;6159229;28;20053;-78
2024/02/08 17:31:02;;;;;;;11.52;3.05;;;17.50;53.00;;;;;;6139869;28;20050;-77
2024/02/08 17:34:09;;;;;;;23.50;3.53;;;17.60;53.00;;;;;;6157970;28;20035;-76
2024/02/08 17:37:17;;;;;;;16.67;4.25;;;17.50;52.90;;;;;;6155899;28;20197;-79
2024/02/08 17:40:29;;;;;;;9.20;3.33;;;17.50;52.90;;;;;;6157451;28;20037;-77
2024/02/08 17:43:38;;;;;;;8.32;3.45;;;17.40;52.90;;;;;;6177451;28;20033;-78
2024/02/08 17:46:46;;;;;;;11.63;4.10;;;17.40;52.90;;;;;;6181501;28;20022;-78
2024/02/08 17:49:47;;;;;;;13.30;3.90;;;17.40;52.90;;;;;;6181231;28;20030;-78
2024/02/08 17:52:48;;;;;;;15.45;4.60;;;17.30;53.00;;;;;;6181581;28;20515;-78
2024/02/08 17:55:53;;;;;;;17.05;4.60;;;17.20;53.00;;;;;;6165071;28;20033;-78
2024/02/08 17:58:56;;;;;;;14.07;3.72;;;17.30;53.20;;;;;;6181547;28;20105;-78
2024/02/08 18:02:06;;;;;;;12.38;3.33;;;17.30;53.30;;;;;;6279739;28;20608;-77
2024/02/08 18:05:14;;;;;;;9.35;4.05;;;17.30;53.40;;;;;;6307286;28;20024;-79
2024/02/08 18:08:19;;;;;;;18.10;4.60;;;17.30;53.60;;;;;;6286946;28;20477;-77
2024/02/08 18:11:21;;;;;;;4.85;2.88;;;17.20;54.20;;;;;;6294052;28;20488;-80
2024/02/08 18:14:22;;;;;;;9.38;3.35;;;17.20;54.30;;;;;;6287910;28;20017;-78
2024/02/08 18:17:27;;;;;;;10.15;4.25;;;17.20;54.30;;;;;;6301255;28;20031;-77
2024/02/08 18:20:33;;;;;;;17.23;3.95;;;17.20;54.40;;;;;;6287737;28;20095;-78
2024/02/08 18:23:35;;;;;;;12.27;4.43;;;17.30;54.40;;;;;;6310547;28;20031;-76